createdAt,value
2019-01-21T00:00:35.054Z,15.77
2019-01-21T00:03:03.879Z,16.50
2019-01-21T00:05:32.335Z,15.90
2019-01-21T00:08:00.919Z,16.57
2019-01-21T00:10:29.327Z,17.33
2019-01-21T00:12:57.856Z,17.57
2019-01-21T00:15:26.283Z,16.37
2019-01-21T00:17:54.978Z,16.57
2019-01-21T00:20:23.428Z,17.60
2019-01-21T00:22:51.924Z,17.10
2019-01-21T00:25:20.397Z,16.77
2019-01-21T00:27:48.827Z,16.20
2019-01-21T00:30:17.698Z,17.23
2019-01-21T00:32:46.127Z,17.27
2019-01-21T00:35:14.663Z,18.13
2019-01-21T00:37:43.136Z,16.07
2019-01-21T00:40:16.978Z,17.17
2019-01-21T00:42:45.538Z,16.23
2019-01-21T00:45:14.222Z,16.77
2019-01-21T00:47:42.881Z,17.40
2019-01-21T00:50:13.252Z,16.47
2019-01-21T00:52:42.029Z,17.40
2019-01-21T00:55:12.317Z,16.20
2019-01-21T00:57:40.876Z,15.80
2019-01-21T01:00:18.081Z,16.07
2019-01-21T01:02:46.559Z,16.50
2019-01-21T01:05:15.655Z,15.80
2019-01-21T01:07:44.308Z,16.17
2019-01-21T01:10:14.329Z,16.97
2019-01-21T01:12:42.901Z,16.20
2019-01-21T01:15:13.579Z,16.23
2019-01-21T01:17:42.327Z,16.20
2019-01-21T01:20:19.768Z,16.50
2019-01-21T01:22:48.346Z,16.87
2019-01-21T01:25:16.985Z,16.60
2019-01-21T01:27:45.611Z,17.57
2019-01-21T01:30:16.204Z,17.07
2019-01-21T01:32:44.791Z,16.07
2019-01-21T01:35:15.358Z,15.80
2019-01-21T01:37:44.607Z,17.20
2019-01-21T01:40:17.675Z,15.20
2019-01-21T01:42:46.460Z,16.50
2019-01-21T01:45:20.537Z,17.23
2019-01-21T01:47:52.543Z,16.97
2019-01-21T01:50:20.966Z,16.70
2019-01-21T01:52:49.473Z,16.33
2019-01-21T01:55:18.160Z,17.87
2019-01-21T01:57:46.778Z,17.17
2019-01-21T02:00:18.837Z,17.30
2019-01-21T02:02:47.361Z,17.23
2019-01-21T02:05:15.943Z,16.40
2019-01-21T02:07:44.384Z,16.73
2019-01-21T02:10:14.152Z,16.37
2019-01-21T02:12:42.642Z,16.60
2019-01-21T02:15:16.060Z,17.40
2019-01-21T02:17:44.511Z,17.70
2019-01-21T02:20:18.407Z,17.80
2019-01-21T02:22:49.597Z,16.70
2019-01-21T02:25:18.255Z,17.17
2019-01-21T02:27:58.774Z,17.20
2019-01-21T02:30:56.003Z,16.87
2019-01-21T02:34:00.831Z,17.03
2019-01-21T02:36:47.313Z,16.30
2019-01-21T02:39:40.206Z,16.17
2019-01-21T02:42:11.691Z,17.37
2019-01-21T02:44:49.157Z,17.03
2019-01-21T02:47:20.633Z,17.37
2019-01-21T02:49:54.929Z,17.20
2019-01-21T02:52:29.402Z,17.83
2019-01-21T02:55:06.679Z,17.17
2019-01-21T02:57:59.412Z,17.10
2019-01-21T03:00:33.906Z,18.00
2019-01-21T03:03:29.542Z,17.70
2019-01-21T03:06:19.104Z,17.53
2019-01-21T03:09:07.567Z,17.23
2019-01-21T03:11:56.465Z,17.33
2019-01-21T03:14:46.212Z,16.63
2019-01-21T03:17:29.883Z,17.70
2019-01-21T03:20:20.824Z,17.43
2019-01-21T03:22:57.866Z,17.07
2019-01-21T03:25:41.495Z,17.90
2019-01-21T03:28:38.898Z,16.57
2019-01-21T03:31:31.294Z,18.23
2019-01-21T03:34:08.029Z,17.50
2019-01-21T03:36:45.055Z,17.80
2019-01-21T03:39:28.497Z,16.77
2019-01-21T03:42:15.117Z,17.60
2019-01-21T03:44:49.457Z,16.90
2019-01-21T03:47:24.152Z,17.50
2019-01-21T03:50:21.499Z,16.93
2019-01-21T03:53:09.479Z,17.97
2019-01-21T03:55:38.247Z,16.83
2019-01-21T03:58:27.735Z,18.30
2019-01-21T04:01:08.015Z,18.53
2019-01-21T04:03:45.266Z,17.33
2019-01-21T04:06:22.817Z,18.17
2019-01-21T04:09:18.466Z,20.53
2019-01-21T04:12:14.228Z,19.07
2019-01-21T04:14:45.763Z,33.60
2019-01-21T04:17:35.711Z,18.97
2019-01-21T04:20:34.711Z,19.20
2019-01-21T04:23:09.382Z,56.37
2019-01-21T04:25:43.777Z,19.90
2019-01-21T04:28:21.063Z,19.37
2019-01-21T04:31:01.132Z,19.10
2019-01-21T04:33:52.051Z,27.23
2019-01-21T04:36:58.547Z,19.70
2019-01-21T04:39:35.649Z,42.47
2019-01-21T04:42:23.622Z,19.00
2019-01-21T04:45:00.887Z,74.80
2019-01-21T04:47:44.564Z,21.37
2019-01-21T04:50:32.660Z,18.53
2019-01-21T04:53:10.030Z,53.20
2019-01-21T04:56:08.579Z,19.10
2019-01-21T04:58:56.703Z,18.13
2019-01-21T05:01:30.850Z,18.00
2019-01-21T05:04:02.302Z,19.17
2019-01-21T05:06:57.875Z,17.53
2019-01-21T05:09:41.415Z,19.27
2019-01-21T05:12:15.957Z,19.10
2019-01-21T05:14:59.230Z,19.13
2019-01-21T05:17:48.450Z,18.80
2019-01-21T05:20:32.061Z,20.70
2019-01-21T05:23:20.413Z,20.80
2019-01-21T05:26:03.702Z,19.93
2019-01-21T05:28:35.158Z,19.70
2019-01-21T05:31:18.908Z,21.10
2019-01-21T05:33:55.592Z,18.83
2019-01-21T05:36:51.511Z,20.77
2019-01-21T05:39:48.921Z,21.43
2019-01-21T05:42:49.196Z,21.80
2019-01-21T05:45:29.201Z,21.40
2019-01-21T05:48:20.057Z,21.07
2019-01-21T05:50:54.154Z,20.87
2019-01-21T05:53:42.436Z,21.07
2019-01-21T05:56:47.391Z,21.00
2019-01-21T05:59:27.273Z,21.43
2019-01-21T06:02:13.635Z,21.77
2019-01-21T06:05:10.761Z,22.23
2019-01-21T06:08:14.620Z,22.03
2019-01-21T06:10:52.015Z,20.57
2019-01-21T06:13:58.873Z,23.80
2019-01-21T06:16:36.288Z,23.80
2019-01-21T06:19:19.779Z,22.73
2019-01-21T06:22:03.102Z,24.10
2019-01-21T06:24:46.699Z,22.77
2019-01-21T06:27:42.152Z,24.63
2019-01-21T06:30:13.658Z,23.43
2019-01-21T06:32:48.151Z,23.90
2019-01-21T06:35:37.344Z,23.97
2019-01-21T06:38:25.660Z,23.73
2019-01-21T06:41:15.296Z,23.63
2019-01-21T06:44:14.089Z,23.53
2019-01-21T06:46:54.408Z,22.97
2019-01-21T06:49:38.087Z,23.30
2019-01-21T06:52:26.166Z,22.70
2019-01-21T06:55:18.679Z,24.07
2019-01-21T06:57:50.155Z,25.27
2019-01-21T07:00:27.202Z,24.27
2019-01-21T07:03:10.796Z,24.50
2019-01-21T07:05:51.119Z,24.57
2019-01-21T07:08:44.155Z,24.30
2019-01-21T07:11:31.152Z,25.03
2019-01-21T07:14:19.168Z,24.47
2019-01-21T07:16:56.322Z,23.83
2019-01-21T07:19:43.218Z,24.23
2019-01-21T07:22:32.985Z,23.67
2019-01-21T07:25:19.251Z,23.57
2019-01-21T07:28:07.061Z,23.27
2019-01-21T07:31:02.603Z,23.87
2019-01-21T07:33:45.424Z,24.77
2019-01-21T07:36:37.322Z,23.40
2019-01-21T07:39:08.822Z,24.80
2019-01-21T07:42:05.975Z,23.40
2019-01-21T07:44:37.467Z,23.93
2019-01-21T07:47:14.630Z,23.20
2019-01-21T07:50:10.279Z,23.53
2019-01-21T07:53:11.071Z,22.80
2019-01-21T07:55:45.260Z,23.40
2019-01-21T07:58:39.208Z,23.33
2019-01-21T08:01:38.170Z,23.83
2019-01-21T08:04:26.236Z,24.87
2019-01-21T08:07:03.957Z,24.37
2019-01-21T08:09:35.463Z,24.97
2019-01-21T08:12:22.025Z,26.03
2019-01-21T08:15:02.541Z,25.53
2019-01-21T08:17:46.311Z,26.80
2019-01-21T08:20:23.497Z,25.63
2019-01-21T08:23:06.619Z,25.83
2019-01-21T08:25:56.187Z,27.57
2019-01-21T08:28:39.491Z,27.30
2019-01-21T08:31:42.919Z,27.63
2019-01-21T08:34:16.880Z,26.47
2019-01-21T08:37:12.112Z,26.67
2019-01-21T08:40:01.733Z,25.20
2019-01-21T08:42:35.746Z,25.77
2019-01-21T08:45:25.094Z,26.60
2019-01-21T08:48:05.642Z,27.03
2019-01-21T08:51:04.699Z,24.50
2019-01-21T08:53:36.173Z,26.37
2019-01-21T08:56:36.651Z,27.50
2019-01-21T08:59:10.815Z,26.00
2019-01-21T09:01:57.313Z,27.23
2019-01-21T09:04:40.366Z,28.60
2019-01-21T09:07:40.637Z,26.57
2019-01-21T09:10:27.054Z,24.43
2019-01-21T09:13:07.560Z,24.47
2019-01-21T09:15:45.098Z,26.73
2019-01-21T09:18:28.603Z,25.40
2019-01-21T09:21:00.107Z,24.73
2019-01-21T09:23:48.325Z,27.10
2019-01-21T09:26:37.692Z,25.47
2019-01-21T09:29:15.038Z,25.90
2019-01-21T09:32:19.919Z,25.80
2019-01-21T09:35:07.973Z,26.93
2019-01-21T09:37:42.581Z,25.77
2019-01-21T09:40:22.689Z,25.30
2019-01-21T09:43:00.212Z,25.60
2019-01-21T09:45:34.399Z,26.97
2019-01-21T09:48:01.707Z,25.47
2019-01-21T09:50:30.482Z,25.60
2019-01-21T09:52:59.462Z,24.53
2019-01-21T09:55:28.657Z,25.83
2019-01-21T09:58:08.781Z,24.60
2019-01-21T10:00:37.485Z,24.90
2019-01-21T10:03:06.341Z,24.57
2019-01-21T10:05:37.115Z,25.43
2019-01-21T10:08:08.808Z,24.27
2019-01-21T10:11:03.579Z,24.57
2019-01-21T10:13:49.744Z,25.57
2019-01-21T10:16:30.834Z,24.80
2019-01-21T10:19:14.121Z,24.67
2019-01-21T10:21:57.971Z,25.70
2019-01-21T10:24:32.337Z,25.47
2019-01-21T10:27:12.868Z,24.80
2019-01-21T10:29:47.219Z,26.53
2019-01-21T10:32:53.790Z,24.23
2019-01-21T10:35:33.947Z,24.20
2019-01-21T10:38:25.884Z,26.43
2019-01-21T10:40:59.987Z,26.47
2019-01-21T10:43:43.333Z,24.57
2019-01-21T10:46:32.966Z,23.77
2019-01-21T10:49:24.818Z,23.87
2019-01-21T10:52:10.656Z,24.33
2019-01-21T10:54:54.074Z,23.93
2019-01-21T10:57:40.628Z,21.53
2019-01-21T11:00:30.454Z,23.60
2019-01-21T11:03:20.105Z,22.80
2019-01-21T11:05:54.592Z,22.27
2019-01-21T11:08:34.735Z,22.50
2019-01-21T11:11:08.991Z,23.57
2019-01-21T11:13:46.570Z,22.63
2019-01-21T11:16:20.895Z,22.83
2019-01-21T11:19:04.337Z,23.30
2019-01-21T11:21:35.805Z,21.27
2019-01-21T11:24:34.289Z,22.07
2019-01-21T11:27:14.825Z,21.17
2019-01-21T11:30:01.360Z,22.57
2019-01-21T11:32:35.805Z,20.53
2019-01-21T11:35:07.347Z,21.87
2019-01-21T11:37:54.507Z,22.37
2019-01-21T11:40:45.543Z,21.13
2019-01-21T11:43:17.254Z,21.07
2019-01-21T11:46:05.500Z,21.67
2019-01-21T11:48:51.978Z,20.07
2019-01-21T11:51:37.912Z,21.10
2019-01-21T11:54:15.155Z,18.40
2019-01-21T11:57:03.307Z,19.53
2019-01-21T11:59:53.024Z,19.87
2019-01-21T12:02:26.950Z,20.43
2019-01-21T12:05:01.454Z,19.97
2019-01-21T12:07:59.821Z,19.73
2019-01-21T12:11:06.001Z,21.57
2019-01-21T12:13:39.960Z,20.97
2019-01-21T12:16:40.443Z,20.97
2019-01-21T12:19:30.065Z,21.63
2019-01-21T12:22:18.164Z,21.97
2019-01-21T12:24:47.582Z,22.27
2019-01-21T12:27:33.970Z,21.73
2019-01-21T12:30:26.349Z,24.13
2019-01-21T12:33:10.086Z,22.70
2019-01-21T12:35:44.599Z,21.90
2019-01-21T12:38:42.202Z,22.87
2019-01-21T12:41:21.744Z,24.30
2019-01-21T12:43:55.807Z,23.23
2019-01-21T12:46:30.223Z,22.23
2019-01-21T12:49:10.316Z,21.83
2019-01-21T12:51:44.542Z,21.43
2019-01-21T12:54:24.899Z,23.23
2019-01-21T12:57:12.779Z,24.90
2019-01-21T13:00:02.544Z,23.47
2019-01-21T13:02:52.206Z,22.57
2019-01-21T13:05:33.087Z,22.73
2019-01-21T13:08:07.402Z,22.77
2019-01-21T13:10:44.594Z,21.53
2019-01-21T13:13:34.284Z,22.87
2019-01-21T13:16:05.819Z,23.60
2019-01-21T13:18:56.329Z,23.10
2019-01-21T13:21:51.955Z,23.00
2019-01-21T13:24:29.482Z,22.67
2019-01-21T13:27:00.949Z,23.13
2019-01-21T13:29:32.474Z,21.60
2019-01-21T13:32:16.181Z,22.07
2019-01-21T13:34:53.625Z,23.17
2019-01-21T13:37:28.058Z,22.20
2019-01-21T13:40:17.762Z,20.70
2019-01-21T13:43:18.282Z,21.27
2019-01-21T13:46:15.361Z,22.23
2019-01-21T13:48:49.443Z,22.13
2019-01-21T13:51:43.439Z,21.80
2019-01-21T13:54:20.753Z,20.57
2019-01-21T13:57:01.067Z,18.90
2019-01-21T13:59:50.831Z,19.70
2019-01-21T14:02:37.177Z,18.60
2019-01-21T14:05:43.422Z,18.90
2019-01-21T14:08:22.067Z,18.63
2019-01-21T14:11:09.635Z,18.07
2019-01-21T14:13:43.934Z,18.83
2019-01-21T14:16:36.401Z,18.03
2019-01-21T14:19:10.607Z,18.20
2019-01-21T14:21:50.948Z,18.93
2019-01-21T14:24:38.682Z,19.20
2019-01-21T14:27:13.040Z,19.10
2019-01-21T14:29:53.500Z,18.63
2019-01-21T14:32:33.813Z,18.73
2019-01-21T14:35:26.295Z,18.60
2019-01-21T14:38:15.678Z,21.80
2019-01-21T14:40:51.498Z,20.43
2019-01-21T14:43:35.740Z,19.90
2019-01-21T14:46:28.752Z,20.10
2019-01-21T14:49:04.679Z,20.23
2019-01-21T14:52:09.971Z,20.70
2019-01-21T14:54:50.332Z,20.07
2019-01-21T14:57:49.240Z,21.53
2019-01-21T15:00:32.268Z,20.53
2019-01-21T15:03:13.096Z,20.83
2019-01-21T15:05:56.393Z,21.20
2019-01-21T15:08:27.891Z,22.30
2019-01-21T15:11:14.222Z,21.87
2019-01-21T15:13:48.707Z,23.67
2019-01-21T15:16:26.072Z,23.90
2019-01-21T15:19:03.770Z,23.20
2019-01-21T15:21:35.224Z,23.97
2019-01-21T15:24:15.804Z,23.63
2019-01-21T15:26:50.094Z,22.90
2019-01-21T15:29:38.434Z,25.80
2019-01-21T15:32:30.835Z,24.27
2019-01-21T15:35:20.662Z,23.83
2019-01-21T15:38:06.771Z,23.60
2019-01-21T15:40:56.252Z,25.27
2019-01-21T15:43:39.678Z,25.03
2019-01-21T15:46:34.036Z,24.27
2019-01-21T15:49:16.794Z,25.07
2019-01-21T15:52:06.786Z,26.33
2019-01-21T15:54:53.258Z,25.57
2019-01-21T15:57:36.975Z,27.87
2019-01-21T16:00:25.987Z,28.40
2019-01-21T16:03:03.694Z,28.73
2019-01-21T16:05:55.158Z,27.53
2019-01-21T16:08:26.888Z,29.07
2019-01-21T16:11:04.158Z,29.83
2019-01-21T16:13:38.626Z,30.57
2019-01-21T16:16:12.435Z,30.57
2019-01-21T16:18:56.098Z,30.30
2019-01-21T16:21:30.623Z,31.50
2019-01-21T16:24:19.927Z,31.20
2019-01-21T16:26:51.445Z,32.00
2019-01-21T16:29:23.080Z,31.00
2019-01-21T16:31:54.132Z,31.30
2019-01-21T16:34:34.704Z,32.20
2019-01-21T16:37:12.242Z,31.93
2019-01-21T16:39:55.514Z,33.00
2019-01-21T16:42:22.780Z,32.43
2019-01-21T16:44:51.384Z,33.73
2019-01-21T16:47:19.804Z,31.60
2019-01-21T16:49:48.399Z,33.47
2019-01-21T16:52:16.855Z,31.87
2019-01-21T16:54:45.383Z,33.07
2019-01-21T16:57:13.892Z,34.07
2019-01-21T16:59:42.354Z,34.33
2019-01-21T17:02:10.899Z,33.43
2019-01-21T17:04:39.369Z,33.97
2019-01-21T17:07:08.028Z,33.47
2019-01-21T17:09:36.630Z,32.60
2019-01-21T17:12:05.294Z,33.50
2019-01-21T17:14:33.745Z,33.83
2019-01-21T17:17:02.386Z,34.40
2019-01-21T17:19:30.845Z,34.63
2019-01-21T17:22:00.986Z,34.27
2019-01-21T17:24:29.462Z,36.93
2019-01-21T17:26:57.975Z,35.20
2019-01-21T17:29:26.447Z,36.43
2019-01-21T17:31:55.018Z,33.73
2019-01-21T17:34:30.736Z,36.17
2019-01-21T17:36:59.271Z,37.03
2019-01-21T17:39:27.684Z,36.00
2019-01-21T17:41:56.223Z,35.40
2019-01-21T17:44:24.659Z,34.40
2019-01-21T17:46:53.324Z,35.57
2019-01-21T17:49:21.839Z,34.30
2019-01-21T17:51:50.371Z,41.83
2019-01-21T17:54:18.905Z,53.73
2019-01-21T17:56:47.370Z,52.33
2019-01-21T17:59:15.918Z,49.20
2019-01-21T18:01:44.468Z,52.57
2019-01-21T18:04:13.054Z,51.63
2019-01-21T18:06:41.541Z,47.80
2019-01-21T18:09:10.165Z,44.57
2019-01-21T18:11:41.396Z,44.50
2019-01-21T18:14:08.856Z,47.17
2019-01-21T18:16:37.467Z,47.43
2019-01-21T18:19:06.116Z,49.67
2019-01-21T18:21:40.148Z,53.03
2019-01-21T18:24:04.967Z,54.93
2019-01-21T18:26:33.433Z,56.87
2019-01-21T18:29:01.977Z,56.43
2019-01-21T18:31:30.461Z,56.57
2019-01-21T18:33:58.932Z,54.70
2019-01-21T18:36:27.501Z,46.70
2019-01-21T18:38:56.103Z,40.70
2019-01-21T18:41:24.612Z,39.00
2019-01-21T18:43:54.678Z,37.17
2019-01-21T18:46:23.257Z,34.00
2019-01-21T18:48:51.834Z,35.73
2019-01-21T18:51:20.412Z,32.20
2019-01-21T18:53:49.010Z,31.13
2019-01-21T18:56:17.531Z,31.40
2019-01-21T18:58:45.993Z,31.70
2019-01-21T19:01:14.403Z,31.83
2019-01-21T19:03:43.024Z,33.53
2019-01-21T19:06:11.570Z,32.37
2019-01-21T19:08:39.980Z,31.87
2019-01-21T19:11:09.766Z,31.13
2019-01-21T19:13:38.205Z,30.77
2019-01-21T19:16:06.899Z,31.63
2019-01-21T19:18:35.338Z,31.87
2019-01-21T19:21:03.911Z,31.70
2019-01-21T19:23:32.386Z,30.60
2019-01-21T19:26:01.143Z,29.13
2019-01-21T19:28:29.562Z,31.03
2019-01-21T19:30:58.135Z,30.23
2019-01-21T19:33:27.131Z,28.67
2019-01-21T19:35:55.861Z,27.60
2019-01-21T19:38:24.394Z,27.73
2019-01-21T19:40:53.012Z,29.03
2019-01-21T19:43:21.603Z,28.20
2019-01-21T19:45:50.354Z,28.30
2019-01-21T19:48:18.880Z,28.27
2019-01-21T19:50:47.407Z,28.57
2019-01-21T19:53:16.049Z,29.83
2019-01-21T19:55:44.629Z,27.90
2019-01-21T19:58:13.520Z,28.87
2019-01-21T20:00:42.317Z,27.17
2019-01-21T20:03:10.853Z,27.83
2019-01-21T20:05:39.592Z,27.73
2019-01-21T20:08:08.164Z,27.80
2019-01-21T20:10:36.731Z,27.97
2019-01-21T20:13:05.709Z,27.07
2019-01-21T20:15:34.379Z,27.43
2019-01-21T20:18:03.195Z,27.23
2019-01-21T20:20:37.418Z,27.10
2019-01-21T20:23:06.142Z,27.87
2019-01-21T20:25:34.679Z,28.00
2019-01-21T20:28:03.217Z,28.10
2019-01-21T20:30:31.731Z,27.50
2019-01-21T20:33:00.437Z,26.93
2019-01-21T20:35:28.913Z,27.50
2019-01-21T20:37:57.465Z,27.40
2019-01-21T20:40:27.992Z,30.53
2019-01-21T20:42:56.781Z,28.07
2019-01-21T20:45:26.169Z,26.37
2019-01-21T20:47:54.887Z,25.73
2019-01-21T20:50:26.201Z,27.67
2019-01-21T20:52:54.672Z,28.70
2019-01-21T20:55:23.552Z,28.80
2019-01-21T20:57:52.281Z,28.13
2019-01-21T21:00:24.117Z,29.03
2019-01-21T21:02:53.484Z,28.70
2019-01-21T21:05:22.195Z,30.17
2019-01-21T21:07:50.806Z,30.03
2019-01-21T21:12:56.098Z,31.70
2019-01-21T21:15:30.533Z,33.63
2019-01-21T21:17:58.963Z,32.33
2019-01-21T21:20:30.099Z,32.30
2019-01-21T21:22:58.545Z,30.87
2019-01-21T21:25:27.935Z,32.33
2019-01-21T21:27:56.440Z,30.97
2019-01-21T21:30:27.788Z,30.20
2019-01-21T21:32:56.290Z,30.67
2019-01-21T21:35:25.156Z,29.80
2019-01-21T21:37:53.610Z,37.23
2019-01-21T21:40:23.021Z,32.87
2019-01-21T21:42:51.481Z,31.57
2019-01-21T21:45:21.809Z,37.23
2019-01-21T21:47:50.670Z,45.60
2019-01-21T21:50:21.813Z,53.57
2019-01-21T21:52:50.218Z,52.73
2019-01-21T21:55:18.869Z,51.50
2019-01-21T21:57:47.338Z,45.23
2019-01-21T22:00:19.071Z,40.53
2019-01-21T22:02:47.495Z,38.57
2019-01-21T22:05:16.260Z,37.73
2019-01-21T22:07:44.703Z,34.00
2019-01-21T22:10:19.577Z,33.90
2019-01-21T22:12:46.224Z,30.23
2019-01-21T22:15:16.870Z,29.40
2019-01-21T22:17:45.726Z,29.53
2019-01-21T22:20:19.938Z,28.57
2019-01-21T22:22:48.648Z,29.93
2019-01-21T22:25:17.534Z,29.07
2019-01-21T22:27:45.993Z,28.07
2019-01-21T22:30:22.921Z,26.57
2019-01-21T22:32:51.426Z,26.13
2019-01-21T22:35:19.912Z,26.27
2019-01-21T22:37:48.909Z,26.90
2019-01-21T22:40:19.705Z,27.67
2019-01-21T22:42:48.315Z,27.50
2019-01-21T22:45:18.191Z,29.40
2019-01-21T22:47:46.902Z,28.93
2019-01-21T22:50:17.242Z,28.10
2019-01-21T22:52:45.874Z,27.17
2019-01-21T22:55:15.966Z,28.40
2019-01-21T22:57:44.560Z,27.87
2019-01-21T23:00:38.371Z,25.60
2019-01-21T23:03:06.975Z,27.07
2019-01-21T23:05:35.555Z,26.77
2019-01-21T23:08:04.000Z,25.80
2019-01-21T23:10:32.500Z,26.33
2019-01-21T23:13:01.742Z,27.10
2019-01-21T23:15:30.400Z,26.90
2019-01-21T23:17:58.864Z,26.53
2019-01-21T23:20:27.287Z,26.37
2019-01-21T23:22:55.701Z,26.73
2019-01-21T23:25:24.784Z,27.20
2019-01-21T23:27:53.269Z,27.67
2019-01-21T23:30:23.059Z,26.43
2019-01-21T23:32:51.482Z,25.83
2019-01-21T23:35:20.075Z,26.00
2019-01-21T23:37:48.755Z,26.67
2019-01-21T23:40:17.380Z,26.10
2019-01-21T23:42:45.867Z,27.17
2019-01-21T23:45:14.538Z,26.30
2019-01-21T23:47:42.964Z,26.13
2019-01-21T23:50:16.041Z,26.57
2019-01-21T23:52:44.461Z,26.10
2019-01-21T23:55:14.369Z,25.93
2019-01-21T23:57:42.922Z,25.87
